BBC296 VGHS-VTBS
Flight info
| Callsign | BBC296 |
|---|---|
| Flight time | N/A |
| Altitude | 37000 |
| Route | ADMIL1D ADMIL G463 BGO L507 IGONI WILLA1C |
| Aircraft | B77W/H-SDE1E2E3FGHIJ2J3J4J5M1RWXY/LB1D1 |
Departure
| Time | 2026-04-23 07:09 |
|---|---|
| Airport | Hazrat Shahjalal International Airport (VGHS) |
Arrival
| Time | N/A |
|---|---|
| Airport | Suvarnabhumi Airport (VTBS) |
| Time | Latitude | Longitude | Altitude | Speed | Heading |
|---|---|---|---|---|---|
| 2026-04-23 06:35 | 23.84676 | 90.40464 | 41 ft | 0 kts | 54° |
| 2026-04-23 06:42 | 23.84677 | 90.40466 | 41 ft | 0 kts | 53° |
| 2026-04-23 06:42 | 23.84676 | 90.40464 | 41 ft | 0 kts | 54° |
| 2026-04-23 06:57 | 23.84675 | 90.40461 | 40 ft | 3 kts | 54° |
| 2026-04-23 06:58 | 23.84659 | 90.40438 | 39 ft | 4 kts | 54° |
| 2026-04-23 06:58 | 23.84646 | 90.40419 | 38 ft | 4 kts | 47° |
| 2026-04-23 06:58 | 23.84628 | 90.40405 | 38 ft | 4 kts | 348° |
| 2026-04-23 06:58 | 23.84608 | 90.40417 | 38 ft | 4 kts | 323° |
| 2026-04-23 06:59 | 23.84592 | 90.40430 | 37 ft | 0 kts | 323° |
| 2026-04-23 07:01 | 23.84593 | 90.40429 | 41 ft | 1 kts | 323° |
| 2026-04-23 07:02 | 23.84600 | 90.40424 | 41 ft | 2 kts | 323° |
| 2026-04-23 07:02 | 23.84624 | 90.40405 | 41 ft | 6 kts | 323° |
| 2026-04-23 07:02 | 23.84658 | 90.40377 | 41 ft | 6 kts | 323° |
| 2026-04-23 07:02 | 23.84691 | 90.40343 | 41 ft | 7 kts | 292° |
| 2026-04-23 07:03 | 23.84677 | 90.40295 | 41 ft | 7 kts | 238° |
| 2026-04-23 07:03 | 23.84649 | 90.40250 | 41 ft | 7 kts | 236° |
| 2026-04-23 07:03 | 23.84655 | 90.40200 | 41 ft | 7 kts | 304° |
| 2026-04-23 07:03 | 23.84695 | 90.40161 | 41 ft | 8 kts | 323° |
| 2026-04-23 07:04 | 23.84750 | 90.40117 | 41 ft | 11 kts | 324° |
| 2026-04-23 07:04 | 23.84822 | 90.40060 | 41 ft | 14 kts | 324° |
| 2026-04-23 07:04 | 23.84901 | 90.39997 | 41 ft | 14 kts | 324° |
| 2026-04-23 07:04 | 23.84983 | 90.39932 | 41 ft | 14 kts | 324° |
| 2026-04-23 07:05 | 23.85065 | 90.39868 | 41 ft | 14 kts | 324° |
| 2026-04-23 07:05 | 23.85146 | 90.39803 | 41 ft | 15 kts | 323° |
| 2026-04-23 07:05 | 23.85235 | 90.39732 | 41 ft | 16 kts | 324° |
| 2026-04-23 07:05 | 23.85325 | 90.39661 | 41 ft | 16 kts | 324° |
| 2026-04-23 07:06 | 23.85415 | 90.39590 | 41 ft | 16 kts | 324° |
| 2026-04-23 07:06 | 23.85504 | 90.39518 | 41 ft | 16 kts | 323° |
| 2026-04-23 07:06 | 23.85594 | 90.39447 | 41 ft | 16 kts | 324° |
| 2026-04-23 07:06 | 23.85684 | 90.39375 | 41 ft | 16 kts | 324° |
| 2026-04-23 07:07 | 23.85758 | 90.39309 | 41 ft | 11 kts | 301° |
| 2026-04-23 07:07 | 23.85741 | 90.39230 | 41 ft | 11 kts | 234° |
| 2026-04-23 07:07 | 23.85695 | 90.39161 | 41 ft | 11 kts | 234° |
| 2026-04-23 07:07 | 23.85649 | 90.39093 | 39 ft | 11 kts | 233° |
| 2026-04-23 07:08 | 23.85602 | 90.39023 | 41 ft | 13 kts | 233° |
| 2026-04-23 07:08 | 23.85547 | 90.38943 | 40 ft | 13 kts | 231° |
| 2026-04-23 07:08 | 23.85473 | 90.38900 | 40 ft | 12 kts | 181° |
| 2026-04-23 07:08 | 23.85398 | 90.38937 | 40 ft | 13 kts | 145° |
| 2026-04-23 07:09 | 23.85243 | 90.39059 | 39 ft | 48 kts | 143° |
| 2026-04-23 07:09 | 23.84754 | 90.39447 | 42 ft | 124 kts | 144° |
| 2026-04-23 07:09 | 23.83903 | 90.40127 | 100 ft | 175 kts | 144° |
| 2026-04-23 07:09 | 23.82951 | 90.40895 | 835 ft | 170 kts | 145° |
| 2026-04-23 07:10 | 23.81986 | 90.41664 | 1650 ft | 173 kts | 142° |
| 2026-04-23 07:10 | 23.81021 | 90.42531 | 2344 ft | 189 kts | 141° |
| 2026-04-23 07:10 | 23.79943 | 90.43509 | 2648 ft | 219 kts | 141° |
| 2026-04-23 07:10 | 23.78677 | 90.44657 | 2864 ft | 253 kts | 141° |
| 2026-04-23 07:11 | 23.77296 | 90.45909 | 3530 ft | 262 kts | 140° |
| 2026-04-23 07:11 | 23.75866 | 90.47199 | 4379 ft | 270 kts | 141° |
| 2026-04-23 07:11 | 23.74397 | 90.48524 | 5230 ft | 280 kts | 142° |
| 2026-04-23 07:12 | 23.71302 | 90.51321 | 7069 ft | 298 kts | 142° |
| 2026-04-23 07:12 | 23.69700 | 90.52761 | 8113 ft | 299 kts | 142° |
| 2026-04-23 07:12 | 23.68073 | 90.54227 | 8961 ft | 307 kts | 142° |
| 2026-04-23 07:12 | 23.66396 | 90.55732 | 9679 ft | 315 kts | 142° |
| 2026-04-23 07:13 | 23.64684 | 90.57270 | 10279 ft | 327 kts | 141° |
| 2026-04-23 07:13 | 23.62853 | 90.58914 | 10503 ft | 354 kts | 141° |
| 2026-04-23 07:13 | 23.60877 | 90.60689 | 10736 ft | 379 kts | 141° |
| 2026-04-23 07:13 | 23.58815 | 90.62544 | 11395 ft | 390 kts | 141° |
| 2026-04-23 07:14 | 23.56700 | 90.64445 | 12275 ft | 395 kts | 141° |
| 2026-04-23 07:14 | 23.54576 | 90.66355 | 13276 ft | 398 kts | 140° |
| 2026-04-23 07:14 | 23.52429 | 90.68282 | 14198 ft | 401 kts | 140° |
| 2026-04-23 07:14 | 23.50269 | 90.70219 | 15056 ft | 404 kts | 140° |
| 2026-04-23 07:15 | 23.48084 | 90.72178 | 15890 ft | 408 kts | 140° |
| 2026-04-23 07:15 | 23.45881 | 90.74155 | 16716 ft | 412 kts | 139° |
| 2026-04-23 07:15 | 23.43655 | 90.76151 | 17557 ft | 416 kts | 139° |
| 2026-04-23 07:15 | 23.41407 | 90.78168 | 18327 ft | 422 kts | 139° |
| 2026-04-23 07:16 | 23.39124 | 90.80215 | 18975 ft | 428 kts | 140° |
| 2026-04-23 07:16 | 23.36807 | 90.82290 | 19651 ft | 434 kts | 140° |
| 2026-04-23 07:16 | 23.34460 | 90.84390 | 20348 ft | 439 kts | 140° |
| 2026-04-23 07:16 | 23.32086 | 90.86517 | 21046 ft | 444 kts | 140° |
| 2026-04-23 07:17 | 23.29689 | 90.88674 | 21727 ft | 450 kts | 140° |
| 2026-04-23 07:17 | 23.27263 | 90.90859 | 22387 ft | 456 kts | 140° |
| 2026-04-23 07:17 | 23.24838 | 90.93041 | 23018 ft | 461 kts | 141° |
| 2026-04-23 07:17 | 23.22316 | 90.95311 | 23618 ft | 467 kts | 141° |
| 2026-04-23 07:18 | 23.19832 | 90.97542 | 24138 ft | 472 kts | 141° |
| 2026-04-23 07:18 | 23.17290 | 90.99826 | 24676 ft | 476 kts | 141° |
| 2026-04-23 07:18 | 23.14733 | 91.02145 | 25214 ft | 481 kts | 142° |
| 2026-04-23 07:18 | 23.12162 | 91.04492 | 25741 ft | 486 kts | 142° |
| 2026-04-23 07:19 | 23.09561 | 91.06871 | 26246 ft | 491 kts | 143° |
| 2026-04-23 07:19 | 23.06937 | 91.09267 | 26686 ft | 497 kts | 143° |
| 2026-04-23 07:19 | 23.04271 | 91.11699 | 27167 ft | 502 kts | 144° |
| 2026-04-23 07:19 | 23.01584 | 91.14147 | 27672 ft | 505 kts | 144° |
| 2026-04-23 07:20 | 22.98880 | 91.16608 | 28147 ft | 510 kts | 144° |
| 2026-04-23 07:20 | 22.96152 | 91.19090 | 28576 ft | 515 kts | 144° |
| 2026-04-23 07:20 | 22.93395 | 91.21596 | 29042 ft | 519 kts | 144° |
| 2026-04-23 07:20 | 22.90611 | 91.24127 | 29506 ft | 522 kts | 144° |
| 2026-04-23 07:21 | 22.87817 | 91.26666 | 29934 ft | 526 kts | 144° |
| 2026-04-23 07:21 | 22.85008 | 91.29215 | 30280 ft | 529 kts | 145° |
| 2026-04-23 07:21 | 22.82172 | 91.31788 | 30625 ft | 532 kts | 145° |
| 2026-04-23 07:21 | 22.79325 | 91.34371 | 30976 ft | 534 kts | 145° |
| 2026-04-23 07:22 | 22.76475 | 91.36958 | 31399 ft | 534 kts | 146° |
| 2026-04-23 07:22 | 22.73664 | 91.39512 | 31964 ft | 531 kts | 146° |
| 2026-04-23 07:22 | 22.70841 | 91.42074 | 32492 ft | 529 kts | 146° |
| 2026-04-23 07:22 | 22.68021 | 91.44631 | 32971 ft | 528 kts | 147° |
| 2026-04-23 07:23 | 22.65204 | 91.47181 | 33412 ft | 528 kts | 147° |
| 2026-04-23 07:23 | 22.62389 | 91.49728 | 33845 ft | 527 kts | 147° |
| 2026-04-23 07:23 | 22.59578 | 91.52271 | 34234 ft | 526 kts | 147° |
| 2026-04-23 07:23 | 22.56773 | 91.54808 | 34601 ft | 526 kts | 147° |
| 2026-04-23 07:24 | 22.54076 | 91.57249 | 34934 ft | 526 kts | 147° |
| 2026-04-23 07:24 | 22.51269 | 91.59789 | 35287 ft | 526 kts | 147° |
| 2026-04-23 07:24 | 22.48466 | 91.62327 | 35663 ft | 525 kts | 147° |
| 2026-04-23 07:24 | 22.45667 | 91.64861 | 36038 ft | 524 kts | 148° |
| 2026-04-23 07:25 | 22.42876 | 91.67386 | 36480 ft | 522 kts | 147° |
| 2026-04-23 07:25 | 22.40097 | 91.69900 | 36834 ft | 521 kts | 147° |
| 2026-04-23 07:25 | 22.37297 | 91.72425 | 36796 ft | 526 kts | 147° |
| 2026-04-23 07:26 | 22.31685 | 91.77491 | 36802 ft | 523 kts | 147° |
| 2026-04-23 07:26 | 22.27061 | 91.81665 | 36795 ft | 519 kts | 148° |
| 2026-04-23 07:27 | 22.20604 | 91.87445 | 36799 ft | 518 kts | 148° |
| 2026-04-23 07:27 | 22.15047 | 91.92384 | 36797 ft | 517 kts | 148° |
| 2026-04-23 07:28 | 22.10390 | 91.96522 | 36803 ft | 518 kts | 148° |
| 2026-04-23 07:28 | 22.04907 | 92.01398 | 36797 ft | 520 kts | 148° |
| 2026-04-23 07:29 | 21.99363 | 92.06326 | 36797 ft | 521 kts | 148° |
| 2026-04-23 07:29 | 21.93758 | 92.11300 | 36796 ft | 522 kts | 148° |
| 2026-04-23 07:30 | 21.88073 | 92.16263 | 36792 ft | 522 kts | 149° |
| 2026-04-23 07:30 | 21.82448 | 92.21129 | 36797 ft | 523 kts | 149° |